createdAt,value
2018-11-06T00:00:25.468Z,11.14
2018-11-06T00:01:25.454Z,11.17
2018-11-06T00:02:25.436Z,11.04
2018-11-06T00:03:25.427Z,11.14
2018-11-06T00:04:25.414Z,11.02
2018-11-06T00:05:25.374Z,11.03
2018-11-06T00:06:25.372Z,10.97
2018-11-06T00:07:25.333Z,10.94
2018-11-06T00:08:25.339Z,11.04
2018-11-06T00:09:25.346Z,11.17
2018-11-06T00:10:25.278Z,11.14
2018-11-06T00:11:25.255Z,11.15
2018-11-06T00:12:25.242Z,11.04
2018-11-06T00:13:25.264Z,10.99
2018-11-06T00:14:25.232Z,11.03
2018-11-06T00:15:25.189Z,11.02
2018-11-06T00:16:25.173Z,11.03
2018-11-06T00:17:25.149Z,11.04
2018-11-06T00:18:25.146Z,11.03
2018-11-06T00:19:25.104Z,11.00
2018-11-06T00:20:25.092Z,10.97
2018-11-06T00:21:25.070Z,11.02
2018-11-06T00:22:25.044Z,10.97
2018-11-06T00:23:25.051Z,11.00
2018-11-06T00:24:25.010Z,10.92
2018-11-06T00:25:25.000Z,10.86
2018-11-06T00:26:24.986Z,10.94
2018-11-06T00:27:24.948Z,11.00
2018-11-06T00:28:24.944Z,11.02
2018-11-06T00:29:24.917Z,10.85
2018-11-06T00:30:24.899Z,10.92
2018-11-06T00:31:24.889Z,10.94
2018-11-06T00:32:24.856Z,10.84
2018-11-06T00:33:24.838Z,10.86
2018-11-06T00:34:24.821Z,10.88
2018-11-06T00:35:24.802Z,10.88
2018-11-06T00:36:24.778Z,10.91
2018-11-06T00:37:24.776Z,10.82
2018-11-06T00:38:24.740Z,10.82
2018-11-06T00:39:24.721Z,10.78
2018-11-06T00:40:24.705Z,10.91
2018-11-06T00:41:24.704Z,10.78
2018-11-06T00:42:24.658Z,10.81
2018-11-06T00:43:24.649Z,10.85
2018-11-06T00:44:24.627Z,10.76
2018-11-06T00:45:24.622Z,10.79
2018-11-06T00:46:24.604Z,10.85
2018-11-06T00:47:24.570Z,10.79
2018-11-06T00:48:24.552Z,10.82
2018-11-06T00:49:24.541Z,10.73
2018-11-06T00:50:24.518Z,10.66
2018-11-06T00:51:24.495Z,10.64
2018-11-06T00:52:24.497Z,10.73
2018-11-06T00:53:24.472Z,10.71
2018-11-06T00:54:24.435Z,10.73
2018-11-06T00:55:24.423Z,10.73
2018-11-06T00:56:24.397Z,10.64
2018-11-06T00:57:24.379Z,10.64
2018-11-06T00:58:24.351Z,10.63
2018-11-06T00:59:24.358Z,10.59
2018-11-06T01:00:24.321Z,10.63
2018-11-06T01:01:24.301Z,10.53
2018-11-06T01:02:24.282Z,10.52
2018-11-06T01:03:24.273Z,10.52
2018-11-06T01:04:24.245Z,10.47
2018-11-06T01:05:24.244Z,10.51
2018-11-06T01:06:24.206Z,10.47
2018-11-06T01:07:24.191Z,10.47
2018-11-06T01:08:24.190Z,10.45
2018-11-06T01:09:24.174Z,10.41
2018-11-06T01:10:24.131Z,10.56
2018-11-06T01:11:24.111Z,10.42
2018-11-06T01:12:24.090Z,10.55
2018-11-06T01:13:24.068Z,10.42
2018-11-06T01:14:24.075Z,10.42
2018-11-06T01:15:24.053Z,10.42
2018-11-06T01:16:24.011Z,10.38
2018-11-06T01:17:23.990Z,10.41
2018-11-06T01:18:23.997Z,10.40
2018-11-06T01:19:23.952Z,10.45
2018-11-06T01:20:23.949Z,10.44
2018-11-06T01:21:23.916Z,10.36
2018-11-06T01:22:23.904Z,10.36
2018-11-06T01:23:23.880Z,10.38
2018-11-06T01:24:23.862Z,10.45
2018-11-06T01:25:23.841Z,10.40
2018-11-06T01:26:23.846Z,10.41
2018-11-06T01:27:23.795Z,10.41
2018-11-06T01:28:23.783Z,10.36
2018-11-06T01:29:23.762Z,10.44
2018-11-06T01:30:23.742Z,10.38
2018-11-06T01:31:23.737Z,10.40
2018-11-06T01:32:23.711Z,10.41
2018-11-06T01:33:23.686Z,10.45
2018-11-06T01:34:23.669Z,10.41
2018-11-06T01:35:23.644Z,10.53
2018-11-06T01:36:23.625Z,10.52
2018-11-06T01:37:23.624Z,10.53
2018-11-06T01:38:23.589Z,10.48
2018-11-06T01:39:23.568Z,10.42
2018-11-06T01:40:23.549Z,10.40
2018-11-06T01:41:23.540Z,10.48
2018-11-06T01:42:23.532Z,10.53
2018-11-06T01:43:23.489Z,10.59
2018-11-06T01:44:23.479Z,10.55
2018-11-06T01:45:23.456Z,10.60
2018-11-06T01:46:23.435Z,10.55
2018-11-06T01:47:23.427Z,10.56
2018-11-06T01:48:23.414Z,10.61
2018-11-06T01:49:23.381Z,10.55
2018-11-06T01:50:23.353Z,10.70
2018-11-06T01:51:23.339Z,10.76
2018-11-06T01:52:23.316Z,10.74
2018-11-06T01:53:23.314Z,10.68
2018-11-06T01:54:23.281Z,10.70
2018-11-06T01:55:23.262Z,10.64
2018-11-06T01:56:23.237Z,10.59
2018-11-06T01:57:23.220Z,10.61
2018-11-06T01:58:23.222Z,10.67
2018-11-06T01:59:23.191Z,10.60
2018-11-06T02:00:23.164Z,10.56
2018-11-06T02:01:23.142Z,10.56
2018-11-06T02:02:23.127Z,10.51
2018-11-06T02:03:23.101Z,10.56
2018-11-06T02:04:23.097Z,10.51
2018-11-06T02:05:23.075Z,10.52
2018-11-06T02:06:23.043Z,10.51
2018-11-06T02:07:23.023Z,10.51
2018-11-06T02:08:23.029Z,10.55
2018-11-06T02:09:22.983Z,10.48
2018-11-06T02:10:22.969Z,10.42
2018-11-06T02:11:22.974Z,10.40
2018-11-06T02:12:22.929Z,10.30
2018-11-06T02:13:22.908Z,10.41
2018-11-06T02:14:22.906Z,10.51
2018-11-06T02:15:22.891Z,10.52
2018-11-06T02:16:22.850Z,10.52
2018-11-06T02:17:22.832Z,10.36
2018-11-06T02:18:22.817Z,10.41
2018-11-06T02:19:22.792Z,10.36
2018-11-06T02:20:22.791Z,10.44
2018-11-06T02:21:22.757Z,10.42
2018-11-06T02:22:22.735Z,10.48
2018-11-06T02:23:22.717Z,10.55
2018-11-06T02:24:22.697Z,10.60
2018-11-06T02:25:22.700Z,10.55
2018-11-06T02:26:22.654Z,10.55
2018-11-06T02:27:22.631Z,10.56
2018-11-06T02:28:22.617Z,10.60
2018-11-06T02:29:22.598Z,10.66
2018-11-06T02:30:22.608Z,10.76
2018-11-06T02:31:22.579Z,10.73
2018-11-06T02:32:22.622Z,10.82
2018-11-06T02:33:22.528Z,10.79
2018-11-06T02:34:22.508Z,10.78
2018-11-06T02:35:22.480Z,10.81
2018-11-06T02:36:22.572Z,10.85
2018-11-06T02:37:22.437Z,10.86
2018-11-06T02:38:22.454Z,10.76
2018-11-06T02:39:22.405Z,10.79
2018-11-06T02:40:22.381Z,10.84
2018-11-06T02:41:22.363Z,10.78
2018-11-06T02:42:22.360Z,10.91
2018-11-06T02:43:22.328Z,10.89
2018-11-06T02:44:22.308Z,11.00
2018-11-06T02:45:22.284Z,11.02
2018-11-06T02:46:22.267Z,11.09
2018-11-06T02:47:22.266Z,11.06
2018-11-06T02:48:22.346Z,11.10
2018-11-06T02:49:22.209Z,11.17
2018-11-06T02:50:22.190Z,11.07
2018-11-06T02:51:22.175Z,11.11
2018-11-06T02:52:22.160Z,11.11
2018-11-06T02:53:22.149Z,11.17
2018-11-06T02:54:22.111Z,11.17
2018-11-06T02:55:22.093Z,11.21
2018-11-06T02:56:22.071Z,11.07
2018-11-06T02:57:22.058Z,11.11
2018-11-06T02:58:22.050Z,11.22
2018-11-06T02:59:22.016Z,11.19
2018-11-06T03:00:21.997Z,11.22
2018-11-06T03:01:21.980Z,11.22
2018-11-06T03:02:21.956Z,11.25
2018-11-06T03:03:21.953Z,11.22
2018-11-06T03:04:21.914Z,11.29
2018-11-06T03:05:21.905Z,11.24
2018-11-06T03:06:21.886Z,11.19
2018-11-06T03:07:21.863Z,11.22
2018-11-06T03:08:21.857Z,11.21
2018-11-06T03:09:21.828Z,11.17
2018-11-06T03:10:21.872Z,11.19
2018-11-06T03:11:21.783Z,11.17
2018-11-06T03:12:21.766Z,11.21
2018-11-06T03:13:21.748Z,11.24
2018-11-06T03:14:21.748Z,11.25
2018-11-06T03:15:21.708Z,11.29
2018-11-06T03:16:21.685Z,11.24
2018-11-06T03:17:21.668Z,11.17
2018-11-06T03:18:21.650Z,11.25
2018-11-06T03:19:21.631Z,11.19
2018-11-06T03:20:21.626Z,11.21
2018-11-06T03:21:21.606Z,11.24
2018-11-06T03:22:21.703Z,11.22
2018-11-06T03:23:21.568Z,11.24
2018-11-06T03:24:21.534Z,11.35
2018-11-06T03:25:21.516Z,11.29
2018-11-06T03:26:21.497Z,11.36
2018-11-06T03:27:21.477Z,11.33
2018-11-06T03:28:21.472Z,11.42
2018-11-06T03:29:21.435Z,11.43
2018-11-06T03:30:21.430Z,11.44
2018-11-06T03:31:21.396Z,11.44
2018-11-06T03:32:21.381Z,11.46
2018-11-06T03:33:21.354Z,11.49
2018-11-06T03:34:21.337Z,11.46
2018-11-06T03:35:21.336Z,11.37
2018-11-06T03:36:21.320Z,11.39
2018-11-06T03:37:21.286Z,11.43
2018-11-06T03:38:21.264Z,11.27
2018-11-06T03:39:21.290Z,11.49
2018-11-06T03:40:21.224Z,11.43
2018-11-06T03:41:21.221Z,11.47
2018-11-06T03:42:21.186Z,11.33
2018-11-06T03:43:21.163Z,11.44
2018-11-06T03:44:21.142Z,11.37
2018-11-06T03:45:21.146Z,11.47
2018-11-06T03:46:21.109Z,11.35
2018-11-06T03:47:21.089Z,11.43
2018-11-06T03:48:21.070Z,11.37
2018-11-06T03:49:21.056Z,11.33
2018-11-06T03:50:21.038Z,11.36
2018-11-06T03:51:21.041Z,11.24
2018-11-06T03:52:20.994Z,11.27
2018-11-06T03:53:20.978Z,11.21
2018-11-06T03:54:20.954Z,11.17
2018-11-06T03:55:20.956Z,11.11
2018-11-06T03:56:20.935Z,11.14
2018-11-06T03:57:20.902Z,11.19
2018-11-06T03:58:20.886Z,11.04
2018-11-06T03:59:20.861Z,11.10
2018-11-06T04:00:20.847Z,11.06
2018-11-06T04:01:20.841Z,11.03
2018-11-06T04:02:20.805Z,11.00
2018-11-06T04:03:20.799Z,11.03
2018-11-06T04:04:20.764Z,10.91
2018-11-06T04:05:20.751Z,10.99
2018-11-06T04:06:20.728Z,10.94
2018-11-06T04:07:20.725Z,10.97
2018-11-06T04:08:20.684Z,10.94
2018-11-06T04:09:20.669Z,10.94
2018-11-06T04:10:20.652Z,10.96
2018-11-06T04:11:20.636Z,10.89
2018-11-06T04:12:20.613Z,10.96
2018-11-06T04:13:20.608Z,10.91
2018-11-06T04:14:20.575Z,10.88
2018-11-06T04:15:20.551Z,10.91
2018-11-06T04:16:20.535Z,10.89
2018-11-06T04:17:20.518Z,10.89
2018-11-06T04:18:20.517Z,10.89
2018-11-06T04:19:20.480Z,10.89
2018-11-06T04:20:20.458Z,10.94
2018-11-06T04:21:20.444Z,10.92
2018-11-06T04:22:20.434Z,10.96
2018-11-06T04:23:20.418Z,10.99
2018-11-06T04:24:20.414Z,11.03
2018-11-06T04:25:20.367Z,10.99
2018-11-06T04:26:20.346Z,11.04
2018-11-06T04:27:20.362Z,11.02
2018-11-06T04:28:20.322Z,11.09
2018-11-06T04:29:20.307Z,11.17
2018-11-06T04:30:20.272Z,11.09
2018-11-06T04:31:20.252Z,11.15
2018-11-06T04:32:20.242Z,11.07
2018-11-06T04:33:20.215Z,11.19
2018-11-06T04:34:20.211Z,11.19
2018-11-06T04:35:20.177Z,11.22
2018-11-06T04:36:20.159Z,11.22
2018-11-06T04:37:20.138Z,11.15
2018-11-06T04:38:20.123Z,11.21
2018-11-06T04:39:20.115Z,11.22
2018-11-06T04:40:20.082Z,11.18
2018-11-06T04:41:20.057Z,11.27
2018-11-06T04:42:20.051Z,11.21
2018-11-06T04:43:20.037Z,11.18
2018-11-06T04:44:20.007Z,11.19
2018-11-06T04:45:20.004Z,11.19
2018-11-06T04:46:19.968Z,11.22
2018-11-06T04:47:19.946Z,11.25
2018-11-06T04:48:19.930Z,11.25
2018-11-06T04:49:19.910Z,11.18
2018-11-06T04:50:19.905Z,11.22
2018-11-06T04:51:19.891Z,11.27
2018-11-06T04:52:19.853Z,11.25
2018-11-06T04:53:19.836Z,11.25
2018-11-06T04:54:19.812Z,11.37
2018-11-06T04:55:19.811Z,11.36
2018-11-06T04:56:19.778Z,11.36
2018-11-06T04:57:19.758Z,11.35
2018-11-06T04:58:19.737Z,11.28
2018-11-06T04:59:19.731Z,11.40
2018-11-06T05:00:19.728Z,11.25
2018-11-06T05:01:19.680Z,11.36
2018-11-06T05:02:19.667Z,11.22
2018-11-06T05:03:19.643Z,11.28
2018-11-06T05:04:19.664Z,11.28
2018-11-06T05:05:19.605Z,11.28
2018-11-06T05:06:19.602Z,11.32
2018-11-06T05:07:19.586Z,11.27
2018-11-06T05:08:19.551Z,11.28
2018-11-06T05:09:19.570Z,11.21
2018-11-06T05:10:19.513Z,11.22
2018-11-06T05:11:19.499Z,11.19
2018-11-06T05:12:19.500Z,11.19
2018-11-06T05:13:19.459Z,11.18
2018-11-06T05:14:19.504Z,11.15
2018-11-06T05:15:19.412Z,11.17
2018-11-06T05:16:19.396Z,11.19
2018-11-06T05:17:19.396Z,11.10
2018-11-06T05:18:19.369Z,11.11
2018-11-06T05:19:19.359Z,11.04
2018-11-06T05:20:19.315Z,11.02
2018-11-06T05:21:19.297Z,11.11
2018-11-06T05:22:19.288Z,11.17
2018-11-06T05:23:19.284Z,11.15
2018-11-06T05:24:19.246Z,11.11
2018-11-06T05:25:19.244Z,11.10
2018-11-06T05:26:19.204Z,11.18
2018-11-06T05:27:19.204Z,11.15
2018-11-06T05:28:19.190Z,11.14
2018-11-06T05:29:19.149Z,11.10
2018-11-06T05:30:19.128Z,11.15
2018-11-06T05:31:19.108Z,11.14
2018-11-06T05:32:19.092Z,11.14
2018-11-06T05:33:19.105Z,11.18
2018-11-06T05:34:19.079Z,11.21
2018-11-06T05:35:19.033Z,11.19
2018-11-06T05:36:19.017Z,11.18
2018-11-06T05:37:18.996Z,11.22
2018-11-06T05:38:18.971Z,11.17
2018-11-06T05:39:18.978Z,11.19
2018-11-06T05:40:18.958Z,11.15
2018-11-06T05:41:18.975Z,11.10
2018-11-06T05:42:18.900Z,11.07
2018-11-06T05:43:18.943Z,11.11
2018-11-06T05:44:18.864Z,11.19
2018-11-06T05:45:18.881Z,11.11
2018-11-06T05:46:18.850Z,11.14
2018-11-06T05:47:18.806Z,11.19
2018-11-06T05:48:18.790Z,11.24
2018-11-06T05:49:18.774Z,11.24
2018-11-06T05:50:18.750Z,11.19
2018-11-06T05:51:18.798Z,11.21
2018-11-06T05:52:18.715Z,11.11
2018-11-06T05:53:18.803Z,11.15
2018-11-06T05:54:18.681Z,11.10
2018-11-06T05:55:18.652Z,11.07
2018-11-06T05:56:18.639Z,11.09
2018-11-06T05:57:18.644Z,11.11
2018-11-06T05:58:18.653Z,11.04
2018-11-06T05:59:18.581Z,11.03
2018-11-06T06:00:18.572Z,11.11
2018-11-06T06:01:18.545Z,10.99
2018-11-06T06:02:18.538Z,10.94
2018-11-06T06:03:18.511Z,10.97
2018-11-06T06:04:18.484Z,10.94
2018-11-06T06:05:18.462Z,10.88
2018-11-06T06:06:18.451Z,10.76
2018-11-06T06:07:18.443Z,10.74
2018-11-06T06:08:18.408Z,10.74
2018-11-06T06:09:18.392Z,10.67
2018-11-06T06:10:18.370Z,10.63
2018-11-06T06:11:18.565Z,10.52
2018-11-06T06:12:18.331Z,10.53
2018-11-06T06:13:18.351Z,10.47
2018-11-06T06:14:18.294Z,10.47
2018-11-06T06:15:18.271Z,10.53
2018-11-06T06:16:18.266Z,10.47
2018-11-06T06:17:18.333Z,10.52
2018-11-06T06:18:18.218Z,10.59
2018-11-06T06:19:18.232Z,10.61
2018-11-06T06:20:18.180Z,10.60
2018-11-06T06:21:18.156Z,10.61
2018-11-06T06:22:18.188Z,10.59
2018-11-06T06:23:18.300Z,10.52
2018-11-06T06:24:18.098Z,10.64
2018-11-06T06:25:18.081Z,10.51
2018-11-06T06:26:18.060Z,10.48
2018-11-06T06:27:18.044Z,10.51
2018-11-06T06:28:18.052Z,10.47
2018-11-06T06:29:18.004Z,10.51
2018-11-06T06:30:17.981Z,10.52
2018-11-06T06:31:17.981Z,10.55
2018-11-06T06:32:17.944Z,10.52
2018-11-06T06:33:17.925Z,10.52
2018-11-06T06:34:17.929Z,10.59
2018-11-06T06:35:18.046Z,10.53
2018-11-06T06:36:17.870Z,10.48
2018-11-06T06:37:17.866Z,10.52
2018-11-06T06:38:17.827Z,10.51
2018-11-06T06:39:17.809Z,10.45
2018-11-06T06:40:17.891Z,10.32
2018-11-06T06:41:17.779Z,10.41
2018-11-06T06:42:17.753Z,10.40
2018-11-06T06:43:17.730Z,10.29
2018-11-06T06:44:17.744Z,10.27
2018-11-06T06:45:17.698Z,10.22
2018-11-06T06:46:17.751Z,10.14
2018-11-06T06:47:17.653Z,9.99
2018-11-06T06:48:17.634Z,9.97
2018-11-06T06:49:17.614Z,9.90
2018-11-06T06:50:17.608Z,9.89
2018-11-06T06:51:17.599Z,9.84
2018-11-06T06:52:17.574Z,9.75
2018-11-06T06:53:17.543Z,9.81
2018-11-06T06:54:17.794Z,9.76
2018-11-06T06:55:17.717Z,9.68
2018-11-06T06:56:17.502Z,9.76
2018-11-06T06:57:17.461Z,9.81
2018-11-06T06:58:17.440Z,9.84
2018-11-06T06:59:17.456Z,9.83
2018-11-06T07:00:17.426Z,9.72
2018-11-06T07:01:17.597Z,9.79
2018-11-06T07:02:17.407Z,9.86
2018-11-06T07:03:17.463Z,9.89
2018-11-06T07:04:17.353Z,9.91
2018-11-06T07:05:17.333Z,9.91
2018-11-06T07:06:17.285Z,9.84
2018-11-06T07:07:17.271Z,9.89
2018-11-06T07:08:17.246Z,9.78
2018-11-06T07:09:17.315Z,9.81
2018-11-06T07:10:17.238Z,9.75
2018-11-06T07:11:17.182Z,9.79
2018-11-06T07:12:17.167Z,9.84
2018-11-06T07:13:17.160Z,9.87
2018-11-06T07:14:17.125Z,9.91
2018-11-06T07:15:17.134Z,9.99
2018-11-06T07:16:17.087Z,10.07
2018-11-06T07:17:17.147Z,10.08
2018-11-06T07:18:17.048Z,10.17
2018-11-06T07:19:17.026Z,10.29
2018-11-06T07:20:17.014Z,10.40
2018-11-06T07:21:17.013Z,10.34
2018-11-06T07:22:16.987Z,10.45
2018-11-06T07:23:16.958Z,10.42
2018-11-06T07:24:16.929Z,10.47
2018-11-06T07:25:16.916Z,10.40
2018-11-06T07:26:16.916Z,10.48
2018-11-06T07:27:16.871Z,10.51
2018-11-06T07:28:16.875Z,10.51
2018-11-06T07:29:16.837Z,10.51
2018-11-06T07:30:16.817Z,10.52
2018-11-06T07:31:16.811Z,10.56
2018-11-06T07:32:16.777Z,10.60
2018-11-06T07:33:16.759Z,10.68
2018-11-06T07:34:16.761Z,10.71
2018-11-06T07:35:16.772Z,10.70
2018-11-06T07:36:16.725Z,10.68
2018-11-06T07:37:16.682Z,10.66
2018-11-06T07:38:16.661Z,10.71
2018-11-06T07:39:16.645Z,10.78
2018-11-06T07:40:16.624Z,10.78
2018-11-06T07:41:16.674Z,10.79
2018-11-06T07:42:16.581Z,10.81
2018-11-06T07:43:16.570Z,10.88
2018-11-06T07:44:16.548Z,11.02
2018-11-06T07:45:16.530Z,11.02
2018-11-06T07:46:16.505Z,11.11
2018-11-06T07:47:16.505Z,11.21
2018-11-06T07:48:16.468Z,11.18
2018-11-06T07:49:16.464Z,11.32
2018-11-06T07:50:16.498Z,11.24
2018-11-06T07:51:17.333Z,11.32
2018-11-06T07:52:16.389Z,11.29
2018-11-06T07:53:16.387Z,11.39
2018-11-06T07:54:16.372Z,11.44
2018-11-06T07:55:16.336Z,11.46
2018-11-06T07:56:16.396Z,11.36
2018-11-06T07:57:16.303Z,11.39
2018-11-06T07:58:16.283Z,11.55
2018-11-06T07:59:16.276Z,11.61
2018-11-06T08:00:16.242Z,11.67
2018-11-06T08:01:16.219Z,11.69
2018-11-06T08:02:16.205Z,11.69
2018-11-06T08:03:16.187Z,11.83
2018-11-06T08:04:16.223Z,11.91
2018-11-06T08:05:16.156Z,11.95
2018-11-06T08:06:16.186Z,11.96
2018-11-06T08:07:16.109Z,11.99
2018-11-06T08:08:16.109Z,12.10
2018-11-06T08:09:16.079Z,12.14
2018-11-06T08:10:16.057Z,12.14
2018-11-06T08:11:16.070Z,12.16
2018-11-06T08:12:16.019Z,12.28
2018-11-06T08:13:15.998Z,12.32
2018-11-06T08:14:15.989Z,12.34
2018-11-06T08:15:16.061Z,12.41
2018-11-06T08:16:15.943Z,12.41
2018-11-06T08:17:15.946Z,12.39
2018-11-06T08:18:15.915Z,12.47
2018-11-06T08:19:15.888Z,12.57
2018-11-06T08:20:15.876Z,12.59
2018-11-06T08:21:15.855Z,12.64
2018-11-06T08:22:15.840Z,12.74
2018-11-06T08:23:15.833Z,12.77
2018-11-06T08:24:15.813Z,12.89
2018-11-06T08:25:15.777Z,12.92
2018-11-06T08:26:15.760Z,13.00
2018-11-06T08:27:15.744Z,13.07
2018-11-06T08:28:15.724Z,13.11
2018-11-06T08:29:15.727Z,13.10
2018-11-06T08:30:15.786Z,13.14
2018-11-06T08:31:16.087Z,13.12
2018-11-06T08:32:16.083Z,13.14
2018-11-06T08:33:15.628Z,13.17
2018-11-06T08:34:15.622Z,13.28
2018-11-06T08:35:15.631Z,13.39
2018-11-06T08:36:15.584Z,13.42
2018-11-06T08:37:15.566Z,13.49
2018-11-06T08:38:15.562Z,13.59
2018-11-06T08:39:15.524Z,13.75
2018-11-06T08:40:15.524Z,13.79
2018-11-06T08:41:15.537Z,13.87
2018-11-06T08:42:15.467Z,13.96
2018-11-06T08:43:15.464Z,14.09
2018-11-06T08:44:15.433Z,14.17
2018-11-06T08:45:15.457Z,14.20
2018-11-06T08:46:15.399Z,14.18
2018-11-06T08:47:15.376Z,14.27
2018-11-06T08:48:15.423Z,14.35
2018-11-06T08:49:15.352Z,14.28
2018-11-06T08:50:15.330Z,14.45
2018-11-06T08:51:15.324Z,14.42
2018-11-06T08:52:15.288Z,14.54
2018-11-06T08:53:15.267Z,14.54
2018-11-06T08:54:15.256Z,14.51
2018-11-06T08:55:15.252Z,14.58
2018-11-06T08:56:15.235Z,14.70
2018-11-06T08:57:15.197Z,14.77
2018-11-06T08:58:15.183Z,14.77
2018-11-06T08:59:15.161Z,14.78
2018-11-06T09:00:15.155Z,14.84
2018-11-06T09:01:15.147Z,14.86
2018-11-06T09:02:15.113Z,14.96
2018-11-06T09:03:15.094Z,14.95
2018-11-06T09:04:15.075Z,15.09
2018-11-06T09:05:15.057Z,15.02
2018-11-06T09:06:15.066Z,15.07
2018-11-06T09:07:15.032Z,15.13
2018-11-06T09:08:15.009Z,15.19
2018-11-06T09:09:15.000Z,15.11
2018-11-06T09:10:14.973Z,15.11
2018-11-06T09:11:14.975Z,15.16
2018-11-06T09:12:14.941Z,15.21
2018-11-06T09:13:14.932Z,15.21
2018-11-06T09:14:14.927Z,15.36
2018-11-06T09:15:14.887Z,15.34
2018-11-06T09:16:14.876Z,15.35
2018-11-06T09:17:14.869Z,15.47
2018-11-06T09:18:14.828Z,15.39
2018-11-06T09:19:14.817Z,15.43
2018-11-06T09:20:14.798Z,15.49
2018-11-06T09:21:14.783Z,15.54
2018-11-06T09:22:14.790Z,15.54
2018-11-06T09:23:14.751Z,15.57
2018-11-06T09:24:14.749Z,15.57
2018-11-06T09:25:14.713Z,15.60
2018-11-06T09:26:14.692Z,15.67
2018-11-06T09:27:14.690Z,15.68
2018-11-06T09:28:14.665Z,15.59
2018-11-06T09:29:14.661Z,15.65
2018-11-06T09:30:14.640Z,15.67
2018-11-06T09:31:14.617Z,15.67
2018-11-06T09:32:14.596Z,15.69
2018-11-06T09:33:14.602Z,15.56
2018-11-06T09:34:14.561Z,15.51
2018-11-06T09:35:14.572Z,15.62
2018-11-06T09:36:14.544Z,15.62
2018-11-06T09:37:14.512Z,15.75
2018-11-06T09:38:14.516Z,15.71
2018-11-06T09:39:14.478Z,15.75
2018-11-06T09:40:14.640Z,15.69
2018-11-06T09:41:14.470Z,15.68
2018-11-06T09:42:14.439Z,15.64
2018-11-06T09:43:14.425Z,15.75
2018-11-06T09:44:14.393Z,15.68
2018-11-06T09:45:14.402Z,15.78
2018-11-06T09:46:14.380Z,15.83
2018-11-06T09:47:14.350Z,15.86
2018-11-06T09:48:14.319Z,15.96
2018-11-06T09:49:14.307Z,16.01
2018-11-06T09:50:14.290Z,16.02
2018-11-06T09:51:14.302Z,16.04
2018-11-06T09:52:14.263Z,15.78
2018-11-06T09:53:14.237Z,15.75
2018-11-06T09:54:14.238Z,15.72
2018-11-06T09:55:14.206Z,15.80
2018-11-06T09:56:14.195Z,15.69
2018-11-06T09:57:14.176Z,15.68
2018-11-06T09:58:14.160Z,15.97
2018-11-06T09:59:14.137Z,15.90
2018-11-06T10:00:14.175Z,15.80
2018-11-06T10:01:14.106Z,15.92
2018-11-06T10:02:14.089Z,15.92
2018-11-06T10:03:14.073Z,15.80
2018-11-06T10:04:14.058Z,15.80
2018-11-06T10:05:14.051Z,15.82
2018-11-06T10:06:14.153Z,15.80
2018-11-06T10:07:14.321Z,15.86
2018-11-06T10:08:14.005Z,15.78
2018-11-06T10:09:13.988Z,15.78
2018-11-06T10:10:13.954Z,15.87
2018-11-06T10:11:13.955Z,15.94
2018-11-06T10:12:13.914Z,15.94
2018-11-06T10:13:13.907Z,16.12
2018-11-06T10:14:13.887Z,16.09
2018-11-06T10:15:13.874Z,16.04
2018-11-06T10:16:13.853Z,16.07
2018-11-06T10:17:13.861Z,16.04
2018-11-06T10:18:13.859Z,16.04
2018-11-06T10:19:13.807Z,16.02
2018-11-06T10:20:13.792Z,16.15
2018-11-06T10:21:13.847Z,16.28
2018-11-06T10:22:13.779Z,16.17
2018-11-06T10:23:13.739Z,16.21
2018-11-06T10:24:13.718Z,16.31
2018-11-06T10:25:13.713Z,16.24
2018-11-06T10:26:13.693Z,16.21
2018-11-06T10:27:13.694Z,16.24
2018-11-06T10:28:13.658Z,16.20
2018-11-06T10:29:13.666Z,16.28
2018-11-06T10:30:13.624Z,16.24
2018-11-06T10:31:13.610Z,16.31
2018-11-06T10:32:13.592Z,16.38
2018-11-06T10:33:13.597Z,16.42
2018-11-06T10:34:13.562Z,16.57
2018-11-06T10:35:13.558Z,16.56
2018-11-06T10:36:13.536Z,16.48
2018-11-06T10:37:13.507Z,16.46
2018-11-06T10:38:13.536Z,16.61
2018-11-06T10:39:13.483Z,16.71
2018-11-06T10:40:13.483Z,16.85
2018-11-06T10:41:13.462Z,16.89
2018-11-06T10:42:13.433Z,17.08
2018-11-06T10:43:13.421Z,17.38
2018-11-06T10:44:13.427Z,17.28
2018-11-06T10:45:13.405Z,17.18
2018-11-06T10:46:13.376Z,17.15
2018-11-06T10:47:13.356Z,17.19
2018-11-06T10:48:13.347Z,17.31
2018-11-06T10:49:13.342Z,17.26
2018-11-06T10:50:13.339Z,17.49
2018-11-06T10:51:13.296Z,17.70
2018-11-06T10:52:13.285Z,17.64
2018-11-06T10:53:13.271Z,17.68
2018-11-06T10:54:13.268Z,17.70
2018-11-06T10:55:13.248Z,17.66
2018-11-06T10:56:13.250Z,17.70
2018-11-06T10:57:13.218Z,17.79
2018-11-06T10:58:13.263Z,17.79
2018-11-06T10:59:13.192Z,18.15
2018-11-06T11:00:13.173Z,18.27
2018-11-06T11:01:13.201Z,18.08
2018-11-06T11:02:13.164Z,17.93
2018-11-06T11:03:13.133Z,17.79
2018-11-06T11:04:13.155Z,17.86
2018-11-06T11:05:13.106Z,18.08
2018-11-06T11:06:13.110Z,18.18
2018-11-06T11:07:13.097Z,17.95
2018-11-06T11:08:13.078Z,18.05
2018-11-06T11:09:13.052Z,18.29
2018-11-06T11:10:13.040Z,18.15
2018-11-06T11:11:13.024Z,18.27
2018-11-06T11:12:13.011Z,18.03
2018-11-06T11:13:13.031Z,18.15
2018-11-06T11:14:12.981Z,18.29
2018-11-06T11:15:12.972Z,18.58
2018-11-06T11:16:12.957Z,18.60
2018-11-06T11:17:12.945Z,18.57
2018-11-06T11:18:12.951Z,18.55
2018-11-06T11:19:12.917Z,18.65
2018-11-06T11:20:12.936Z,18.63
2018-11-06T11:21:12.889Z,18.54
2018-11-06T11:22:12.877Z,18.32
2018-11-06T11:23:12.860Z,18.48
2018-11-06T11:24:12.873Z,18.66
2018-11-06T11:25:12.833Z,18.84
2018-11-06T11:26:12.824Z,18.87
2018-11-06T11:27:12.807Z,18.60
2018-11-06T11:28:12.803Z,18.35
2018-11-06T11:29:12.803Z,18.32
2018-11-06T11:30:12.771Z,18.54
2018-11-06T11:31:12.763Z,18.47
2018-11-06T11:32:12.743Z,18.33
2018-11-06T11:33:12.727Z,18.63
2018-11-06T11:34:12.720Z,18.85
2018-11-06T11:35:12.726Z,18.88
2018-11-06T11:36:12.687Z,19.23
2018-11-06T11:37:12.676Z,19.37
2018-11-06T11:38:12.663Z,19.58
2018-11-06T11:39:12.649Z,19.31
2018-11-06T11:40:12.660Z,18.90
2018-11-06T11:41:12.634Z,18.85
2018-11-06T11:42:12.612Z,18.81
2018-11-06T11:43:12.594Z,18.80
2018-11-06T11:44:12.584Z,18.81
2018-11-06T11:45:12.593Z,19.16
2018-11-06T11:46:12.557Z,19.40
2018-11-06T11:47:12.546Z,19.54
2018-11-06T11:48:12.555Z,19.78
2018-11-06T11:49:12.517Z,19.76
2018-11-06T11:50:12.545Z,19.76
2018-11-06T11:51:12.533Z,20.01
2018-11-06T11:52:12.495Z,20.08
2018-11-06T11:53:12.474Z,19.66
2018-11-06T11:54:12.471Z,19.40
2018-11-06T11:55:12.446Z,19.61
2018-11-06T11:56:12.430Z,19.29
2018-11-06T11:57:12.440Z,19.23
2018-11-06T11:58:12.402Z,19.31
2018-11-06T11:59:12.408Z,19.22
2018-11-06T12:00:12.405Z,19.07
2018-11-06T12:01:12.362Z,19.04
2018-11-06T12:02:12.377Z,19.07
2018-11-06T12:03:12.353Z,19.21
2018-11-06T12:04:12.320Z,19.41
2018-11-06T12:05:12.324Z,19.78
2018-11-06T12:06:12.308Z,19.73
2018-11-06T12:07:12.399Z,20.08
2018-11-06T12:08:12.282Z,19.78
2018-11-06T12:09:12.274Z,19.48
2018-11-06T12:10:12.251Z,19.28
2018-11-06T12:11:12.237Z,19.22
2018-11-06T12:12:12.228Z,19.07
2018-11-06T12:13:12.208Z,18.98
2018-11-06T12:14:12.224Z,19.19
2018-11-06T12:15:12.195Z,19.02
2018-11-06T12:16:12.172Z,18.91
2018-11-06T12:17:12.175Z,18.87
2018-11-06T12:18:12.197Z,19.02
2018-11-06T12:19:12.146Z,18.99
2018-11-06T12:20:12.132Z,18.98
2018-11-06T12:21:12.199Z,19.00
2018-11-06T12:22:12.100Z,19.00
2018-11-06T12:23:12.084Z,19.10
2018-11-06T12:24:12.138Z,19.13
2018-11-06T12:25:12.288Z,19.08
2018-11-06T12:26:12.066Z,19.08
2018-11-06T12:27:12.036Z,18.98
2018-11-06T12:28:12.014Z,18.88
2018-11-06T12:29:12.004Z,18.87
2018-11-06T12:30:11.992Z,18.94
2018-11-06T12:31:12.007Z,19.13
2018-11-06T12:32:11.966Z,19.32
2018-11-06T12:33:11.956Z,19.07
2018-11-06T12:34:11.940Z,19.02
2018-11-06T12:35:11.927Z,18.81
2018-11-06T12:36:11.920Z,18.80
2018-11-06T12:37:11.911Z,18.72
2018-11-06T12:38:11.894Z,18.78
2018-11-06T12:39:11.886Z,18.75
2018-11-06T12:40:11.895Z,18.73
2018-11-06T12:41:11.847Z,18.76
2018-11-06T12:42:11.843Z,18.66
2018-11-06T12:43:11.926Z,18.75
2018-11-06T12:44:11.821Z,18.72
2018-11-06T12:45:11.799Z,18.73
2018-11-06T12:46:11.783Z,18.75
2018-11-06T12:47:11.771Z,18.78
2018-11-06T12:48:11.774Z,18.73
2018-11-06T12:49:11.748Z,18.84
2018-11-06T12:50:11.822Z,18.92
2018-11-06T12:51:11.725Z,19.07
2018-11-06T12:52:11.711Z,19.06
2018-11-06T12:53:11.691Z,19.33